sensor_id;sensor_type;location;lat;lon;timestamp;P1;durP1;ratioP1;P2;durP2;ratioP2
8584;SDS011;7180;52.742;11.420;2022-07-04T00:00:02;4.30;;;4.00;;
8584;SDS011;7180;52.742;11.420;2022-07-04T00:02:29;4.40;;;4.07;;
8584;SDS011;7180;52.742;11.420;2022-07-04T00:04:54;4.40;;;4.10;;
8584;SDS011;7180;52.742;11.420;2022-07-04T00:07:19;4.60;;;4.20;;
8584;SDS011;7180;52.742;11.420;2022-07-04T00:09:44;4.10;;;3.90;;
8584;SDS011;7180;52.742;11.420;2022-07-04T00:12:10;4.33;;;4.03;;
8584;SDS011;7180;52.742;11.420;2022-07-04T00:14:35;4.17;;;3.97;;
8584;SDS011;7180;52.742;11.420;2022-07-04T00:17:00;4.40;;;4.10;;
8584;SDS011;7180;52.742;11.420;2022-07-04T00:19:26;4.10;;;3.80;;
8584;SDS011;7180;52.742;11.420;2022-07-04T00:21:51;4.50;;;4.20;;
8584;SDS011;7180;52.742;11.420;2022-07-04T00:24:16;4.07;;;3.87;;
8584;SDS011;7180;52.742;11.420;2022-07-04T00:26:42;4.10;;;3.83;;
8584;SDS011;7180;52.742;11.420;2022-07-04T00:29:07;3.90;;;3.70;;
8584;SDS011;7180;52.742;11.420;2022-07-04T00:31:32;4.00;;;3.80;;
8584;SDS011;7180;52.742;11.420;2022-07-04T00:33:58;4.10;;;3.80;;
8584;SDS011;7180;52.742;11.420;2022-07-04T00:36:24;4.43;;;4.20;;
8584;SDS011;7180;52.742;11.420;2022-07-04T00:38:49;4.37;;;3.90;;
8584;SDS011;7180;52.742;11.420;2022-07-04T00:41:14;4.40;;;4.10;;
8584;SDS011;7180;52.742;11.420;2022-07-04T00:43:40;4.40;;;4.00;;
8584;SDS011;7180;52.742;11.420;2022-07-04T00:46:05;4.27;;;4.07;;
8584;SDS011;7180;52.742;11.420;2022-07-04T00:48:31;4.20;;;4.00;;
8584;SDS011;7180;52.742;11.420;2022-07-04T00:50:57;4.37;;;4.10;;
8584;SDS011;7180;52.742;11.420;2022-07-04T00:53:23;4.40;;;4.00;;
8584;SDS011;7180;52.742;11.420;2022-07-04T00:55:49;4.87;;;4.37;;
8584;SDS011;7180;52.742;11.420;2022-07-04T00:58:15;4.43;;;4.23;;
8584;SDS011;7180;52.742;11.420;2022-07-04T01:00:44;5.20;;;4.80;;
8584;SDS011;7180;52.742;11.420;2022-07-04T01:03:09;4.87;;;4.57;;
8584;SDS011;7180;52.742;11.420;2022-07-04T01:05:35;4.90;;;4.50;;
8584;SDS011;7180;52.742;11.420;2022-07-04T01:08:00;5.27;;;4.97;;
8584;SDS011;7180;52.742;11.420;2022-07-04T01:10:26;4.83;;;4.53;;
8584;SDS011;7180;52.742;11.420;2022-07-04T01:12:51;5.17;;;4.87;;
8584;SDS011;7180;52.742;11.420;2022-07-04T01:15:16;5.03;;;4.73;;
8584;SDS011;7180;52.742;11.420;2022-07-04T01:17:42;5.40;;;5.00;;
8584;SDS011;7180;52.742;11.420;2022-07-04T01:20:11;5.53;;;5.20;;
8584;SDS011;7180;52.742;11.420;2022-07-04T01:22:37;5.40;;;4.90;;
8584;SDS011;7180;52.742;11.420;2022-07-04T01:25:02;5.60;;;5.10;;
8584;SDS011;7180;52.742;11.420;2022-07-04T01:27:28;5.40;;;5.10;;
8584;SDS011;7180;52.742;11.420;2022-07-04T01:29:53;5.60;;;5.20;;
8584;SDS011;7180;52.742;11.420;2022-07-04T01:32:18;5.60;;;5.20;;
8584;SDS011;7180;52.742;11.420;2022-07-04T01:34:45;5.43;;;5.03;;
8584;SDS011;7180;52.742;11.420;2022-07-04T01:37:10;5.40;;;5.10;;
8584;SDS011;7180;52.742;11.420;2022-07-04T01:39:36;5.63;;;5.23;;
8584;SDS011;7180;52.742;11.420;2022-07-04T01:42:01;5.90;;;5.13;;
8584;SDS011;7180;52.742;11.420;2022-07-04T01:44:26;5.80;;;5.30;;
8584;SDS011;7180;52.742;11.420;2022-07-04T01:46:52;6.27;;;5.87;;
8584;SDS011;7180;52.742;11.420;2022-07-04T01:49:17;5.73;;;5.40;;
8584;SDS011;7180;52.742;11.420;2022-07-04T01:51:46;6.20;;;5.70;;
8584;SDS011;7180;52.742;11.420;2022-07-04T01:54:12;5.70;;;5.20;;
8584;SDS011;7180;52.742;11.420;2022-07-04T01:56:39;6.03;;;5.63;;
8584;SDS011;7180;52.742;11.420;2022-07-04T01:59:05;5.80;;;5.30;;
8584;SDS011;7180;52.742;11.420;2022-07-04T02:01:30;6.07;;;5.67;;
8584;SDS011;7180;52.742;11.420;2022-07-04T02:03:56;6.23;;;5.77;;
8584;SDS011;7180;52.742;11.420;2022-07-04T02:06:23;5.50;;;5.20;;
8584;SDS011;7180;52.742;11.420;2022-07-04T02:08:49;4.90;;;4.60;;
8584;SDS011;7180;52.742;11.420;2022-07-04T02:11:32;5.30;;;4.90;;
8584;SDS011;7180;52.742;11.420;2022-07-04T02:14:18;5.40;;;5.00;;
8584;SDS011;7180;52.742;11.420;2022-07-04T02:16:44;4.80;;;4.50;;
8584;SDS011;7180;52.742;11.420;2022-07-04T02:19:09;4.67;;;4.47;;
8584;SDS011;7180;52.742;11.420;2022-07-04T02:21:34;4.80;;;4.50;;
8584;SDS011;7180;52.742;11.420;2022-07-04T02:24:00;4.97;;;4.63;;
8584;SDS011;7180;52.742;11.420;2022-07-04T02:26:25;5.13;;;4.70;;
8584;SDS011;7180;52.742;11.420;2022-07-04T02:28:51;4.80;;;4.50;;
8584;SDS011;7180;52.742;11.420;2022-07-04T02:31:17;5.40;;;4.90;;
8584;SDS011;7180;52.742;11.420;2022-07-04T02:33:42;4.87;;;4.57;;
8584;SDS011;7180;52.742;11.420;2022-07-04T02:36:07;4.60;;;4.30;;
8584;SDS011;7180;52.742;11.420;2022-07-04T02:38:32;4.90;;;4.50;;
8584;SDS011;7180;52.742;11.420;2022-07-04T02:40:58;4.70;;;4.40;;
8584;SDS011;7180;52.742;11.420;2022-07-04T02:43:23;4.70;;;4.40;;
8584;SDS011;7180;52.742;11.420;2022-07-04T02:45:48;4.70;;;4.50;;
8584;SDS011;7180;52.742;11.420;2022-07-04T02:48:13;5.10;;;4.70;;
8584;SDS011;7180;52.742;11.420;2022-07-04T02:50:39;5.03;;;4.73;;
8584;SDS011;7180;52.742;11.420;2022-07-04T02:53:04;5.27;;;4.90;;
8584;SDS011;7180;52.742;11.420;2022-07-04T02:55:29;5.30;;;4.90;;
8584;SDS011;7180;52.742;11.420;2022-07-04T02:57:55;4.80;;;4.40;;
8584;SDS011;7180;52.742;11.420;2022-07-04T03:00:20;5.20;;;4.80;;
8584;SDS011;7180;52.742;11.420;2022-07-04T03:02:45;5.00;;;4.70;;
8584;SDS011;7180;52.742;11.420;2022-07-04T03:05:11;4.87;;;4.57;;
8584;SDS011;7180;52.742;11.420;2022-07-04T03:07:36;5.20;;;4.83;;
8584;SDS011;7180;52.742;11.420;2022-07-04T03:10:01;5.00;;;4.70;;
8584;SDS011;7180;52.742;11.420;2022-07-04T03:12:27;5.50;;;4.60;;
8584;SDS011;7180;52.742;11.420;2022-07-04T03:14:52;4.67;;;4.37;;
8584;SDS011;7180;52.742;11.420;2022-07-04T03:17:18;5.10;;;4.70;;
8584;SDS011;7180;52.742;11.420;2022-07-04T03:19:44;4.83;;;4.43;;
8584;SDS011;7180;52.742;11.420;2022-07-04T03:22:09;5.50;;;5.10;;
8584;SDS011;7180;52.742;11.420;2022-07-04T03:24:35;4.83;;;4.53;;
8584;SDS011;7180;52.742;11.420;2022-07-04T03:27:00;5.03;;;4.73;;
8584;SDS011;7180;52.742;11.420;2022-07-04T03:29:25;4.90;;;4.50;;
8584;SDS011;7180;52.742;11.420;2022-07-04T03:31:50;5.47;;;4.77;;
8584;SDS011;7180;52.742;11.420;2022-07-04T03:34:16;5.20;;;4.70;;
8584;SDS011;7180;52.742;11.420;2022-07-04T03:36:41;6.40;;;4.90;;
8584;SDS011;7180;52.742;11.420;2022-07-04T03:39:06;5.10;;;4.70;;
8584;SDS011;7180;52.742;11.420;2022-07-04T03:41:32;5.30;;;4.90;;
8584;SDS011;7180;52.742;11.420;2022-07-04T03:43:57;5.10;;;4.80;;
8584;SDS011;7180;52.742;11.420;2022-07-04T03:46:22;5.60;;;5.20;;
8584;SDS011;7180;52.742;11.420;2022-07-04T03:48:48;5.33;;;5.00;;
8584;SDS011;7180;52.742;11.420;2022-07-04T03:51:14;5.50;;;5.00;;
8584;SDS011;7180;52.742;11.420;2022-07-04T03:53:39;5.37;;;4.97;;
8584;SDS011;7180;52.742;11.420;2022-07-04T03:56:05;5.30;;;4.80;;
8584;SDS011;7180;52.742;11.420;2022-07-04T03:58:30;6.17;;;5.30;;
8584;SDS011;7180;52.742;11.420;2022-07-04T04:00:55;5.67;;;5.13;;
8584;SDS011;7180;52.742;11.420;2022-07-04T04:03:22;5.53;;;4.97;;
8584;SDS011;7180;52.742;11.420;2022-07-04T04:06:06;5.77;;;5.37;;
8584;SDS011;7180;52.742;11.420;2022-07-04T04:08:32;5.47;;;5.07;;
8584;SDS011;7180;52.742;11.420;2022-07-04T04:10:57;6.30;;;5.70;;
8584;SDS011;7180;52.742;11.420;2022-07-04T04:13:23;5.80;;;5.40;;
8584;SDS011;7180;52.742;11.420;2022-07-04T04:15:48;6.10;;;5.60;;
8584;SDS011;7180;52.742;11.420;2022-07-04T04:18:13;6.10;;;5.57;;
8584;SDS011;7180;52.742;11.420;2022-07-04T04:20:39;5.77;;;5.10;;
8584;SDS011;7180;52.742;11.420;2022-07-04T04:23:04;5.50;;;5.00;;
8584;SDS011;7180;52.742;11.420;2022-07-04T04:25:30;5.57;;;5.17;;
8584;SDS011;7180;52.742;11.420;2022-07-04T04:27:55;6.03;;;5.00;;
8584;SDS011;7180;52.742;11.420;2022-07-04T04:30:20;5.33;;;4.93;;
8584;SDS011;7180;52.742;11.420;2022-07-04T04:32:46;5.77;;;5.20;;
8584;SDS011;7180;52.742;11.420;2022-07-04T04:35:11;5.50;;;5.10;;
8584;SDS011;7180;52.742;11.420;2022-07-04T04:37:36;5.43;;;5.03;;
8584;SDS011;7180;52.742;11.420;2022-07-04T04:40:02;5.57;;;5.17;;
8584;SDS011;7180;52.742;11.420;2022-07-04T04:42:27;5.57;;;5.17;;
8584;SDS011;7180;52.742;11.420;2022-07-04T04:44:53;6.27;;;5.87;;
8584;SDS011;7180;52.742;11.420;2022-07-04T04:47:18;6.17;;;5.67;;
8584;SDS011;7180;52.742;11.420;2022-07-04T04:49:44;5.70;;;5.30;;
8584;SDS011;7180;52.742;11.420;2022-07-04T04:52:09;5.63;;;5.13;;
8584;SDS011;7180;52.742;11.420;2022-07-04T04:54:35;5.50;;;5.10;;
8584;SDS011;7180;52.742;11.420;2022-07-04T04:57:00;6.00;;;5.20;;
8584;SDS011;7180;52.742;11.420;2022-07-04T04:59:27;5.40;;;5.00;;
8584;SDS011;7180;52.742;11.420;2022-07-04T05:01:56;5.70;;;5.40;;
8584;SDS011;7180;52.742;11.420;2022-07-04T05:04:21;6.10;;;5.60;;
8584;SDS011;7180;52.742;11.420;2022-07-04T05:06:47;6.63;;;6.20;;
8584;SDS011;7180;52.742;11.420;2022-07-04T05:09:12;6.93;;;6.43;;
8584;SDS011;7180;52.742;11.420;2022-07-04T05:11:37;6.13;;;5.73;;
8584;SDS011;7180;52.742;11.420;2022-07-04T05:14:02;5.47;;;5.17;;
8584;SDS011;7180;52.742;11.420;2022-07-04T05:16:28;5.67;;;5.17;;
8584;SDS011;7180;52.742;11.420;2022-07-04T05:18:53;5.20;;;4.90;;
8584;SDS011;7180;52.742;11.420;2022-07-04T05:21:19;5.50;;;5.13;;
8584;SDS011;7180;52.742;11.420;2022-07-04T05:23:44;6.40;;;5.22;;
8584;SDS011;7180;52.742;11.420;2022-07-04T05:26:09;5.70;;;5.30;;
8584;SDS011;7180;52.742;11.420;2022-07-04T05:28:34;5.90;;;5.50;;
8584;SDS011;7180;52.742;11.420;2022-07-04T05:31:00;5.50;;;5.20;;
8584;SDS011;7180;52.742;11.420;2022-07-04T05:33:25;6.45;;;5.95;;
8584;SDS011;7180;52.742;11.420;2022-07-04T05:35:50;6.07;;;5.60;;
8584;SDS011;7180;52.742;11.420;2022-07-04T05:38:15;6.67;;;6.10;;
8584;SDS011;7180;52.742;11.420;2022-07-04T05:40:41;6.10;;;5.63;;
8584;SDS011;7180;52.742;11.420;2022-07-04T05:43:06;6.40;;;5.90;;
8584;SDS011;7180;52.742;11.420;2022-07-04T05:45:31;6.87;;;6.40;;
8584;SDS011;7180;52.742;11.420;2022-07-04T05:47:57;7.13;;;6.53;;
8584;SDS011;7180;52.742;11.420;2022-07-04T05:50:22;6.70;;;6.30;;
8584;SDS011;7180;52.742;11.420;2022-07-04T05:52:47;6.23;;;5.77;;
8584;SDS011;7180;52.742;11.420;2022-07-04T05:55:13;7.30;;;6.80;;
8584;SDS011;7180;52.742;11.420;2022-07-04T05:57:38;6.23;;;5.80;;
8584;SDS011;7180;52.742;11.420;2022-07-04T06:00:03;6.77;;;6.10;;
8584;SDS011;7180;52.742;11.420;2022-07-04T06:02:30;5.93;;;5.50;;
8584;SDS011;7180;52.742;11.420;2022-07-04T06:04:55;6.77;;;6.27;;
8584;SDS011;7180;52.742;11.420;2022-07-04T06:07:20;6.23;;;5.80;;
8584;SDS011;7180;52.742;11.420;2022-07-04T06:09:46;6.20;;;5.73;;
8584;SDS011;7180;52.742;11.420;2022-07-04T06:12:11;5.70;;;5.30;;
8584;SDS011;7180;52.742;11.420;2022-07-04T06:14:36;5.50;;;5.10;;
8584;SDS011;7180;52.742;11.420;2022-07-04T06:17:02;6.30;;;5.87;;
8584;SDS011;7180;52.742;11.420;2022-07-04T06:19:27;6.00;;;5.60;;
8584;SDS011;7180;52.742;11.420;2022-07-04T06:21:52;6.20;;;5.70;;
8584;SDS011;7180;52.742;11.420;2022-07-04T06:24:18;6.43;;;5.80;;
8584;SDS011;7180;52.742;11.420;2022-07-04T06:26:43;6.13;;;5.73;;
8584;SDS011;7180;52.742;11.420;2022-07-04T06:29:09;6.13;;;5.60;;
8584;SDS011;7180;52.742;11.420;2022-07-04T06:31:34;5.73;;;5.33;;
8584;SDS011;7180;52.742;11.420;2022-07-04T06:33:59;5.60;;;5.23;;
8584;SDS011;7180;52.742;11.420;2022-07-04T06:36:44;6.03;;;5.53;;
8584;SDS011;7180;52.742;11.420;2022-07-04T06:39:10;5.80;;;5.40;;
8584;SDS011;7180;52.742;11.420;2022-07-04T06:41:35;5.85;;;5.45;;
8584;SDS011;7180;52.742;11.420;2022-07-04T06:44:01;6.32;;;5.82;;
8584;SDS011;7180;52.742;11.420;2022-07-04T06:46:26;5.75;;;5.30;;
8584;SDS011;7180;52.742;11.420;2022-07-04T06:48:51;5.20;;;4.80;;
8584;SDS011;7180;52.742;11.420;2022-07-04T06:51:16;5.38;;;4.97;;
8584;SDS011;7180;52.742;11.420;2022-07-04T06:53:42;5.00;;;4.70;;
8584;SDS011;7180;52.742;11.420;2022-07-04T06:56:10;5.55;;;5.00;;
8584;SDS011;7180;52.742;11.420;2022-07-04T06:58:35;5.35;;;5.05;;
8584;SDS011;7180;52.742;11.420;2022-07-04T07:01:01;5.60;;;5.20;;
8584;SDS011;7180;52.742;11.420;2022-07-04T07:03:26;5.22;;;4.85;;
8584;SDS011;7180;52.742;11.420;2022-07-04T07:05:52;5.47;;;4.97;;
8584;SDS011;7180;52.742;11.420;2022-07-04T07:08:18;5.40;;;5.00;;
8584;SDS011;7180;52.742;11.420;2022-07-04T07:10:44;5.07;;;4.78;;
8584;SDS011;7180;52.742;11.420;2022-07-04T07:13:09;5.38;;;4.97;;
8584;SDS011;7180;52.742;11.420;2022-07-04T07:15:35;4.90;;;4.60;;
8584;SDS011;7180;52.742;11.420;2022-07-04T07:18:01;5.05;;;4.75;;
8584;SDS011;7180;52.742;11.420;2022-07-04T07:20:27;4.65;;;4.35;;
8584;SDS011;7180;52.742;11.420;2022-07-04T07:22:52;4.68;;;4.38;;
8584;SDS011;7180;52.742;11.420;2022-07-04T07:25:18;4.65;;;4.32;;
8584;SDS011;7180;52.742;11.420;2022-07-04T07:27:43;5.00;;;4.70;;
8584;SDS011;7180;52.742;11.420;2022-07-04T07:30:09;5.30;;;4.80;;
8584;SDS011;7180;52.742;11.420;2022-07-04T07:32:35;5.10;;;4.80;;
8584;SDS011;7180;52.742;11.420;2022-07-04T07:35:00;5.18;;;4.82;;
8584;SDS011;7180;52.742;11.420;2022-07-04T07:37:25;4.82;;;4.50;;
8584;SDS011;7180;52.742;11.420;2022-07-04T07:39:51;4.63;;;4.32;;
8584;SDS011;7180;52.742;11.420;2022-07-04T07:42:16;4.47;;;4.25;;
8584;SDS011;7180;52.742;11.420;2022-07-04T07:44:42;4.55;;;4.25;;
8584;SDS011;7180;52.742;11.420;2022-07-04T07:47:11;4.60;;;4.30;;
8584;SDS011;7180;52.742;11.420;2022-07-04T07:49:36;5.20;;;4.80;;
8584;SDS011;7180;52.742;11.420;2022-07-04T07:52:02;5.57;;;5.20;;
8584;SDS011;7180;52.742;11.420;2022-07-04T07:54:27;5.45;;;5.15;;
8584;SDS011;7180;52.742;11.420;2022-07-04T07:56:52;5.15;;;4.80;;
8584;SDS011;7180;52.742;11.420;2022-07-04T07:59:18;4.82;;;4.60;;
8584;SDS011;7180;52.742;11.420;2022-07-04T08:01:43;4.90;;;4.60;;
8584;SDS011;7180;52.742;11.420;2022-07-04T08:04:08;4.97;;;4.60;;
8584;SDS011;7180;52.742;11.420;2022-07-04T08:06:52;4.80;;;4.50;;
8584;SDS011;7180;52.742;11.420;2022-07-04T08:09:18;5.30;;;5.00;;
8584;SDS011;7180;52.742;11.420;2022-07-04T08:11:43;5.27;;;4.97;;
8584;SDS011;7180;52.742;11.420;2022-07-04T08:14:09;5.40;;;5.00;;
8584;SDS011;7180;52.742;11.420;2022-07-04T08:16:34;4.93;;;4.60;;
8584;SDS011;7180;52.742;11.420;2022-07-04T08:19:00;5.10;;;4.80;;
8584;SDS011;7180;52.742;11.420;2022-07-04T08:21:26;4.53;;;4.23;;
8584;SDS011;7180;52.742;11.420;2022-07-04T08:23:52;4.73;;;4.50;;
8584;SDS011;7180;52.742;11.420;2022-07-04T08:26:17;4.93;;;4.63;;
8584;SDS011;7180;52.742;11.420;2022-07-04T08:28:43;4.60;;;4.30;;
8584;SDS011;7180;52.742;11.420;2022-07-04T08:31:08;4.77;;;4.47;;
8584;SDS011;7180;52.742;11.420;2022-07-04T08:33:34;4.70;;;4.40;;
8584;SDS011;7180;52.742;11.420;2022-07-04T08:35:59;4.90;;;4.60;;
8584;SDS011;7180;52.742;11.420;2022-07-04T08:38:24;4.33;;;4.10;;
8584;SDS011;7180;52.742;11.420;2022-07-04T08:40:50;4.40;;;4.10;;
8584;SDS011;7180;52.742;11.420;2022-07-04T08:43:22;4.27;;;4.07;;
8584;SDS011;7180;52.742;11.420;2022-07-04T08:45:48;4.70;;;4.50;;
8584;SDS011;7180;52.742;11.420;2022-07-04T08:48:15;4.40;;;4.10;;
8584;SDS011;7180;52.742;11.420;2022-07-04T08:50:47;4.50;;;4.20;;
8584;SDS011;7180;52.742;11.420;2022-07-04T08:53:15;4.70;;;4.50;;
8584;SDS011;7180;52.742;11.420;2022-07-04T08:55:44;4.60;;;4.30;;
8584;SDS011;7180;52.742;11.420;2022-07-04T08:58:29;5.00;;;4.70;;
8584;SDS011;7180;52.742;11.420;2022-07-04T09:01:04;4.53;;;4.23;;
8584;SDS011;7180;52.742;11.420;2022-07-04T09:03:32;5.30;;;4.90;;
8584;SDS011;7180;52.742;11.420;2022-07-04T09:05:58;6.13;;;4.50;;
8584;SDS011;7180;52.742;11.420;2022-07-04T09:08:24;4.90;;;4.60;;
8584;SDS011;7180;52.742;11.420;2022-07-04T09:10:50;4.77;;;4.47;;
8584;SDS011;7180;52.742;11.420;2022-07-04T09:13:16;4.80;;;4.50;;
8584;SDS011;7180;52.742;11.420;2022-07-04T09:15:47;4.70;;;4.40;;
8584;SDS011;7180;52.742;11.420;2022-07-04T09:18:20;4.97;;;4.57;;
8584;SDS011;7180;52.742;11.420;2022-07-04T09:20:47;4.40;;;4.10;;
8584;SDS011;7180;52.742;11.420;2022-07-04T09:23:17;4.40;;;4.10;;
8584;SDS011;7180;52.742;11.420;2022-07-04T09:25:47;4.80;;;4.50;;
8584;SDS011;7180;52.742;11.420;2022-07-04T09:28:33;5.60;;;4.70;;
8584;SDS011;7180;52.742;11.420;2022-07-04T09:30:59;4.30;;;4.10;;
8584;SDS011;7180;52.742;11.420;2022-07-04T09:36:16;4.90;;;4.50;;
8584;SDS011;7180;52.742;11.420;2022-07-04T09:38:43;4.20;;;4.00;;
8584;SDS011;7180;52.742;11.420;2022-07-04T09:41:09;5.10;;;4.70;;
8584;SDS011;7180;52.742;11.420;2022-07-04T09:43:59;4.57;;;4.37;;
8584;SDS011;7180;52.742;11.420;2022-07-04T09:46:25;4.20;;;4.00;;
8584;SDS011;7180;52.742;11.420;2022-07-04T09:48:51;4.50;;;4.20;;
8584;SDS011;7180;52.742;11.420;2022-07-04T09:56:40;4.50;;;4.20;;
8584;SDS011;7180;52.742;11.420;2022-07-04T09:59:06;3.57;;;3.47;;
8584;SDS011;7180;52.742;11.420;2022-07-04T10:01:32;4.30;;;4.10;;
8584;SDS011;7180;52.742;11.420;2022-07-04T10:03:57;4.47;;;4.18;;
8584;SDS011;7180;52.742;11.420;2022-07-04T10:06:23;4.60;;;4.40;;
8584;SDS011;7180;52.742;11.420;2022-07-04T10:08:49;4.47;;;4.27;;
8584;SDS011;7180;52.742;11.420;2022-07-04T10:11:15;4.30;;;4.10;;
8584;SDS011;7180;52.742;11.420;2022-07-04T10:13:40;4.43;;;4.23;;
8584;SDS011;7180;52.742;11.420;2022-07-04T10:16:06;4.70;;;4.47;;
8584;SDS011;7180;52.742;11.420;2022-07-04T10:18:33;4.47;;;4.10;;
8584;SDS011;7180;52.742;11.420;2022-07-04T10:20:59;4.97;;;4.67;;
8584;SDS011;7180;52.742;11.420;2022-07-04T10:23:24;4.40;;;4.20;;
8584;SDS011;7180;52.742;11.420;2022-07-04T10:25:56;4.23;;;4.00;;
8584;SDS011;7180;52.742;11.420;2022-07-04T10:28:22;4.70;;;4.40;;
8584;SDS011;7180;52.742;11.420;2022-07-04T10:30:48;4.00;;;3.80;;
8584;SDS011;7180;52.742;11.420;2022-07-04T10:33:16;4.57;;;4.30;;
8584;SDS011;7180;52.742;11.420;2022-07-04T10:35:51;4.30;;;4.10;;
8584;SDS011;7180;52.742;11.420;2022-07-04T10:38:27;4.50;;;4.30;;
8584;SDS011;7180;52.742;11.420;2022-07-04T10:45:50;3.27;;;3.17;;
8584;SDS011;7180;52.742;11.420;2022-07-04T10:48:19;3.60;;;3.30;;
8584;SDS011;7180;52.742;11.420;2022-07-04T10:50:57;3.87;;;3.67;;
8584;SDS011;7180;52.742;11.420;2022-07-04T10:53:24;4.07;;;3.87;;
8584;SDS011;7180;52.742;11.420;2022-07-04T10:55:49;4.20;;;4.00;;
8584;SDS011;7180;52.742;11.420;2022-07-04T10:58:36;4.37;;;4.17;;
8584;SDS011;7180;52.742;11.420;2022-07-04T11:01:10;4.60;;;4.40;;
8584;SDS011;7180;52.742;11.420;2022-07-04T11:11:47;4.30;;;4.10;;
8584;SDS011;7180;52.742;11.420;2022-07-04T11:14:34;4.20;;;4.00;;
8584;SDS011;7180;52.742;11.420;2022-07-04T11:17:11;4.10;;;3.90;;
8584;SDS011;7180;52.742;11.420;2022-07-04T11:19:44;4.40;;;4.20;;
8584;SDS011;7180;52.742;11.420;2022-07-04T11:22:09;4.40;;;4.10;;
8584;SDS011;7180;52.742;11.420;2022-07-04T11:24:36;4.10;;;3.97;;
8584;SDS011;7180;52.742;11.420;2022-07-04T11:27:02;4.43;;;4.23;;
8584;SDS011;7180;52.742;11.420;2022-07-04T11:29:28;4.20;;;4.00;;
8584;SDS011;7180;52.742;11.420;2022-07-04T11:31:55;4.30;;;4.10;;
8584;SDS011;7180;52.742;11.420;2022-07-04T11:34:21;4.30;;;4.10;;
8584;SDS011;7180;52.742;11.420;2022-07-04T11:36:48;4.17;;;3.97;;
8584;SDS011;7180;52.742;11.420;2022-07-04T11:39:18;4.00;;;3.80;;
8584;SDS011;7180;52.742;11.420;2022-07-04T11:41:45;4.10;;;3.90;;
8584;SDS011;7180;52.742;11.420;2022-07-04T11:44:33;3.57;;;3.27;;
8584;SDS011;7180;52.742;11.420;2022-07-04T11:49:49;4.30;;;4.00;;
8584;SDS011;7180;52.742;11.420;2022-07-04T11:52:20;4.20;;;4.00;;
8584;SDS011;7180;52.742;11.420;2022-07-04T11:54:48;4.10;;;3.90;;
8584;SDS011;7180;52.742;11.420;2022-07-04T11:59:43;4.50;;;4.30;;
8584;SDS011;7180;52.742;11.420;2022-07-04T12:02:17;3.70;;;3.60;;
8584;SDS011;7180;52.742;11.420;2022-07-04T12:04:42;4.20;;;4.00;;
8584;SDS011;7180;52.742;11.420;2022-07-04T12:07:12;4.27;;;4.07;;
8584;SDS011;7180;52.742;11.420;2022-07-04T12:09:39;4.37;;;4.07;;
8584;SDS011;7180;52.742;11.420;2022-07-04T12:12:06;4.10;;;3.90;;
8584;SDS011;7180;52.742;11.420;2022-07-04T12:14:32;4.00;;;3.80;;
8584;SDS011;7180;52.742;11.420;2022-07-04T12:19:36;3.97;;;3.87;;
8584;SDS011;7180;52.742;11.420;2022-07-04T12:22:01;4.10;;;3.90;;
8584;SDS011;7180;52.742;11.420;2022-07-04T12:24:27;4.10;;;3.90;;
8584;SDS011;7180;52.742;11.420;2022-07-04T12:26:53;4.10;;;3.90;;
8584;SDS011;7180;52.742;11.420;2022-07-04T12:29:22;4.10;;;3.90;;
8584;SDS011;7180;52.742;11.420;2022-07-04T12:31:51;3.90;;;3.70;;
8584;SDS011;7180;52.742;11.420;2022-07-04T12:34:20;3.75;;;3.63;;
8584;SDS011;7180;52.742;11.420;2022-07-04T12:36:49;4.10;;;3.90;;
8584;SDS011;7180;52.742;11.420;2022-07-04T12:39:28;4.00;;;3.80;;
8584;SDS011;7180;52.742;11.420;2022-07-04T12:42:11;4.20;;;4.00;;
8584;SDS011;7180;52.742;11.420;2022-07-04T12:44:42;3.77;;;3.67;;
8584;SDS011;7180;52.742;11.420;2022-07-04T12:47:09;4.10;;;3.90;;
8584;SDS011;7180;52.742;11.420;2022-07-04T12:49:36;3.80;;;3.70;;
8584;SDS011;7180;52.742;11.420;2022-07-04T12:52:10;3.92;;;3.70;;
8584;SDS011;7180;52.742;11.420;2022-07-04T12:54:38;4.10;;;3.90;;
8584;SDS011;7180;52.742;11.420;2022-07-04T12:57:04;4.35;;;4.15;;
8584;SDS011;7180;52.742;11.420;2022-07-04T12:59:31;4.22;;;4.03;;
8584;SDS011;7180;52.742;11.420;2022-07-04T13:01:57;4.40;;;4.20;;
8584;SDS011;7180;52.742;11.420;2022-07-04T13:04:22;4.70;;;4.50;;
8584;SDS011;7180;52.742;11.420;2022-07-04T13:06:47;4.20;;;4.00;;
8584;SDS011;7180;52.742;11.420;2022-07-04T13:09:12;4.10;;;3.90;;
8584;SDS011;7180;52.742;11.420;2022-07-04T13:11:38;4.20;;;3.90;;
8584;SDS011;7180;52.742;11.420;2022-07-04T13:14:22;3.83;;;3.63;;
8584;SDS011;7180;52.742;11.420;2022-07-04T13:16:47;3.95;;;3.70;;
8584;SDS011;7180;52.742;11.420;2022-07-04T13:19:12;4.60;;;4.30;;
8584;SDS011;7180;52.742;11.420;2022-07-04T13:21:38;4.53;;;4.32;;
8584;SDS011;7180;52.742;11.420;2022-07-04T13:24:03;3.60;;;3.50;;
8584;SDS011;7180;52.742;11.420;2022-07-04T13:26:29;4.10;;;3.90;;
8584;SDS011;7180;52.742;11.420;2022-07-04T13:28:55;4.35;;;4.10;;
8584;SDS011;7180;52.742;11.420;2022-07-04T13:31:21;3.75;;;3.60;;
8584;SDS011;7180;52.742;11.420;2022-07-04T13:33:47;4.07;;;3.80;;
8584;SDS011;7180;52.742;11.420;2022-07-04T13:36:12;3.50;;;3.30;;
8584;SDS011;7180;52.742;11.420;2022-07-04T13:38:39;3.95;;;3.30;;
8584;SDS011;7180;52.742;11.420;2022-07-04T13:41:04;3.40;;;3.20;;
8584;SDS011;7180;52.742;11.420;2022-07-04T13:43:30;3.40;;;3.20;;
8584;SDS011;7180;52.742;11.420;2022-07-04T13:45:56;4.15;;;3.95;;
8584;SDS011;7180;52.742;11.420;2022-07-04T13:48:21;3.20;;;3.10;;
8584;SDS011;7180;52.742;11.420;2022-07-04T13:50:47;3.55;;;3.40;;
8584;SDS011;7180;52.742;11.420;2022-07-04T13:53:12;3.47;;;3.38;;
8584;SDS011;7180;52.742;11.420;2022-07-04T13:55:38;3.53;;;3.40;;
8584;SDS011;7180;52.742;11.420;2022-07-04T13:58:04;3.80;;;3.60;;
8584;SDS011;7180;52.742;11.420;2022-07-04T14:00:31;3.70;;;3.60;;
8584;SDS011;7180;52.742;11.420;2022-07-04T14:02:57;3.80;;;3.70;;
8584;SDS011;7180;52.742;11.420;2022-07-04T14:05:22;3.65;;;3.50;;
8584;SDS011;7180;52.742;11.420;2022-07-04T14:07:49;3.67;;;3.50;;
8584;SDS011;7180;52.742;11.420;2022-07-04T14:10:15;4.60;;;3.63;;
8584;SDS011;7180;52.742;11.420;2022-07-04T14:12:40;3.95;;;3.80;;
8584;SDS011;7180;52.742;11.420;2022-07-04T14:15:06;3.13;;;3.00;;
8584;SDS011;7180;52.742;11.420;2022-07-04T14:17:31;3.90;;;3.80;;
8584;SDS011;7180;52.742;11.420;2022-07-04T14:19:57;4.20;;;4.00;;
8584;SDS011;7180;52.742;11.420;2022-07-04T14:22:22;4.30;;;4.10;;
8584;SDS011;7180;52.742;11.420;2022-07-04T14:24:48;3.90;;;3.70;;
8584;SDS011;7180;52.742;11.420;2022-07-04T14:27:13;3.60;;;3.50;;
8584;SDS011;7180;52.742;11.420;2022-07-04T14:29:38;3.97;;;3.78;;
8584;SDS011;7180;52.742;11.420;2022-07-04T14:32:04;4.05;;;3.85;;
8584;SDS011;7180;52.742;11.420;2022-07-04T14:34:29;3.85;;;3.75;;
8584;SDS011;7180;52.742;11.420;2022-07-04T14:36:55;4.00;;;3.90;;
8584;SDS011;7180;52.742;11.420;2022-07-04T14:39:20;3.90;;;3.70;;
8584;SDS011;7180;52.742;11.420;2022-07-04T14:41:47;3.90;;;3.70;;
8584;SDS011;7180;52.742;11.420;2022-07-04T14:44:13;4.00;;;3.80;;
8584;SDS011;7180;52.742;11.420;2022-07-04T14:46:38;4.10;;;3.90;;
8584;SDS011;7180;52.742;11.420;2022-07-04T14:49:03;3.30;;;3.20;;
8584;SDS011;7180;52.742;11.420;2022-07-04T14:51:29;4.57;;;4.25;;
8584;SDS011;7180;52.742;11.420;2022-07-04T14:53:54;3.50;;;3.40;;
8584;SDS011;7180;52.742;11.420;2022-07-04T14:56:19;3.85;;;3.70;;
8584;SDS011;7180;52.742;11.420;2022-07-04T14:58:45;4.10;;;3.90;;
8584;SDS011;7180;52.742;11.420;2022-07-04T15:01:10;4.00;;;3.90;;
8584;SDS011;7180;52.742;11.420;2022-07-04T15:03:35;3.58;;;3.42;;
8584;SDS011;7180;52.742;11.420;2022-07-04T15:06:00;3.33;;;3.22;;
8584;SDS011;7180;52.742;11.420;2022-07-04T15:08:26;3.42;;;3.33;;
8584;SDS011;7180;52.742;11.420;2022-07-04T15:10:51;3.88;;;3.72;;
8584;SDS011;7180;52.742;11.420;2022-07-04T15:13:16;4.18;;;4.03;;
8584;SDS011;7180;52.742;11.420;2022-07-04T15:15:42;3.95;;;3.85;;
8584;SDS011;7180;52.742;11.420;2022-07-04T15:18:07;3.72;;;3.40;;
8584;SDS011;7180;52.742;11.420;2022-07-04T15:20:32;3.47;;;3.38;;
8584;SDS011;7180;52.742;11.420;2022-07-04T15:23:16;4.00;;;3.90;;
8584;SDS011;7180;52.742;11.420;2022-07-04T15:26:00;3.90;;;3.70;;